Time;durP1;ratioP1;P1;durP2;ratioP2;P2;SDS_P1;SDS_P2;PMS_P1;PMS_P2;Temp;Humidity;BMP_temperature;BMP_pressure;BME280_temperature;BME280_humidity;BME280_pressure;Samples;Min_cycle;Max_cycle;Signal;HPM_P1;HPM_P2
2022/08/27 00:00:43;;;;;;;3.90;0.93;;;20.10;99.90;;;;;;5087668;28;20878;-60
2022/08/27 00:03:09;;;;;;;4.82;1.02;;;20.10;99.90;;;;;;5087728;28;20481;-59
2022/08/27 00:05:35;;;;;;;4.73;0.60;;;20.10;99.90;;;;;;5088321;28;20973;-59
2022/08/27 00:08:03;;;;;;;3.75;0.80;;;20.10;99.90;;;;;;5071493;28;20380;-59
2022/08/27 00:10:29;;;;;;;6.35;1.92;;;20.10;99.90;;;;;;5082599;28;20840;-60
2022/08/27 00:12:55;;;;;;;3.90;0.80;;;20.10;99.90;;;;;;5091417;28;20417;-59
2022/08/27 00:15:21;;;;;;;3.70;0.60;;;20.20;99.90;;;;;;5090523;28;20472;-59
2022/08/27 00:17:47;;;;;;;3.90;0.88;;;20.10;99.90;;;;;;5091460;28;20779;-59
2022/08/27 00:20:16;;;;;;;5.17;0.93;;;20.10;99.90;;;;;;5089069;28;20390;-59
2022/08/27 00:22:42;;;;;;;4.55;0.88;;;20.20;99.90;;;;;;5075579;28;20406;-59
2022/08/27 00:25:09;;;;;;;3.63;0.43;;;20.10;99.90;;;;;;5091335;28;20430;-59
2022/08/27 00:27:35;;;;;;;4.40;1.90;;;20.10;99.90;;;;;;5089917;28;20440;-59
2022/08/27 00:30:01;;;;;;;9.10;0.50;;;20.00;99.90;;;;;;5091015;28;20436;-59
2022/08/27 00:32:27;;;;;;;3.80;0.70;;;20.00;99.90;;;;;;5055699;28;20527;-59
2022/08/27 00:34:52;;;;;;;4.50;0.93;;;20.10;99.90;;;;;;5091245;28;20468;-59
2022/08/27 00:37:19;;;;;;;5.10;1.60;;;20.00;99.90;;;;;;5090763;28;20401;-57
2022/08/27 00:39:44;;;;;;;5.47;1.90;;;19.10;99.90;;;;;;5091130;28;20845;-59
2022/08/27 00:42:11;;;;;;;5.40;1.10;;;20.20;99.90;;;;;;5090834;28;20412;-59
2022/08/27 00:44:37;;;;;;;3.90;0.90;;;20.10;99.90;;;;;;5090281;28;20908;-61
2022/08/27 00:47:07;;;;;;;3.83;0.67;;;20.10;99.90;;;;;;5090716;28;20390;-59
2022/08/27 00:49:42;;;;;;;4.20;1.30;;;20.00;99.90;;;;;;5089721;28;20435;-60
2022/08/27 00:52:34;;;;;;;4.05;1.10;;;20.10;99.90;;;;;;5090964;28;20398;-59
2022/08/27 00:55:10;;;;;;;4.70;1.40;;;20.10;99.90;;;;;;5090697;28;20410;-59
2022/08/27 00:57:39;;;;;;;4.00;1.00;;;20.00;99.90;;;;;;5090297;28;20409;-59
2022/08/27 01:00:10;;;;;;;4.13;1.53;;;20.10;99.90;;;;;;5090789;28;20534;-60
2022/08/27 01:02:36;;;;;;;5.65;1.15;;;20.20;99.90;;;;;;5089473;28;20390;-59
2022/08/27 01:05:07;;;;;;;4.10;1.10;;;20.20;99.90;;;;;;5090599;28;20385;-59
2022/08/27 01:07:36;;;;;;;7.00;2.10;;;20.20;99.90;;;;;;5065969;28;20391;-59
2022/08/27 01:10:06;;;;;;;4.25;1.05;;;20.10;99.90;;;;;;5081056;28;20414;-59
2022/08/27 01:12:32;;;;;;;4.60;1.73;;;20.20;99.90;;;;;;5089398;28;20493;-59
2022/08/27 01:14:58;;;;;;;6.32;2.33;;;20.20;99.90;;;;;;5089929;28;20479;-59
2022/08/27 01:17:24;;;;;;;4.75;1.15;;;20.20;99.90;;;;;;5088521;28;20847;-59
2022/08/27 01:19:57;;;;;;;4.70;1.48;;;20.20;99.90;;;;;;5072229;28;20404;-59
2022/08/27 01:22:34;;;;;;;4.70;0.90;;;20.20;99.90;;;;;;5089152;28;20412;-58
2022/08/27 01:25:08;;;;;;;5.40;2.10;;;20.20;99.90;;;;;;5089667;28;20786;-58
2022/08/27 01:27:34;;;;;;;7.10;1.20;;;20.20;99.90;;;;;;5088623;28;20412;-59
2022/08/27 01:30:01;;;;;;;4.40;1.25;;;20.30;99.90;;;;;;5089755;28;20489;-58
2022/08/27 01:32:30;;;;;;;4.70;0.80;;;20.30;99.90;;;;;;5089160;28;20390;-59
2022/08/27 01:34:58;;;;;;;4.90;1.70;;;20.10;99.90;;;;;;5089736;28;20412;-59
2022/08/27 01:37:25;;;;;;;4.00;0.95;;;20.00;99.90;;;;;;5089381;28;20421;-59
2022/08/27 01:39:53;;;;;;;4.57;1.58;;;20.00;99.90;;;;;;5089611;28;20871;-59
2022/08/27 01:42:27;;;;;;;5.00;1.40;;;19.90;99.90;;;;;;5088952;28;20469;-57
2022/08/27 01:45:12;;;;;;;4.05;1.15;;;19.90;99.90;;;;;;5089810;28;20412;-59
2022/08/27 01:47:39;;;;;;;4.20;1.13;;;19.80;99.90;;;;;;5088622;28;21064;-59
2022/08/27 01:50:17;;;;;;;6.90;3.08;;;19.90;99.90;;;;;;5089206;28;20406;-59
2022/08/27 01:52:44;;;;;;;4.40;1.20;;;19.90;99.90;;;;;;5089503;28;20554;-59
2022/08/27 01:55:12;;;;;;;3.60;0.60;;;20.00;99.90;;;;;;5089201;28;20390;-58
2022/08/27 01:57:38;;;;;;;4.03;0.73;;;20.00;99.90;;;;;;5088082;28;20422;-59
2022/08/27 02:00:09;;;;;;;3.63;0.67;;;20.10;99.90;;;;;;5089325;28;20782;-59
2022/08/27 02:02:35;;;;;;;3.85;1.10;;;19.90;99.90;;;;;;5088204;28;20444;-59
2022/08/27 02:05:00;;;;;;;5.10;1.80;;;20.00;99.90;;;;;;5088832;28;20378;-59
2022/08/27 02:07:26;;;;;;;6.10;1.93;;;19.90;99.90;;;;;;5087932;28;20410;-59
2022/08/27 02:09:52;;;;;;;3.90;1.07;;;19.90;99.90;;;;;;5088637;28;20414;-59
2022/08/27 02:12:18;;;;;;;5.97;1.98;;;19.90;99.90;;;;;;5088826;28;20884;-57
2022/08/27 02:14:43;;;;;;;3.80;1.00;;;19.90;99.90;;;;;;5088269;28;20394;-59
2022/08/27 02:17:11;;;;;;;5.20;2.10;;;19.90;99.90;;;;;;5088538;28;20461;-59
2022/08/27 02:19:37;;;;;;;4.00;1.10;;;19.80;99.90;;;;;;5088144;28;20413;-59
2022/08/27 02:22:03;;;;;;;4.80;1.70;;;19.80;99.90;;;;;;5070520;28;20481;-59
2022/08/27 02:24:29;;;;;;;3.80;1.13;;;19.80;99.90;;;;;;5088054;28;20481;-58
2022/08/27 02:26:55;;;;;;;4.07;1.23;;;19.80;99.90;;;;;;5088809;28;20827;-59
2022/08/27 02:29:22;;;;;;;4.40;1.20;;;19.80;99.90;;;;;;5087478;28;20428;-57
2022/08/27 02:31:47;;;;;;;3.67;0.70;;;19.80;99.90;;;;;;5088675;28;20531;-59
2022/08/27 02:34:13;;;;;;;5.93;1.73;;;19.70;99.90;;;;;;5089261;28;20453;-59
2022/08/27 02:36:39;;;;;;;3.85;1.00;;;19.70;99.90;;;;;;5088672;28;20370;-59
2022/08/27 02:39:05;;;;;;;4.85;2.30;;;19.70;99.90;;;;;;5088837;28;20389;-58
2022/08/27 02:41:31;;;;;;;4.70;1.10;;;19.70;99.90;;;;;;5088198;28;20378;-59
2022/08/27 02:43:57;;;;;;;5.50;1.20;;;19.70;99.90;;;;;;5088489;28;20481;-59
2022/08/27 02:46:22;;;;;;;3.90;0.97;;;19.70;99.90;;;;;;5087786;28;20392;-59
2022/08/27 02:48:48;;;;;;;6.50;1.08;;;19.80;99.90;;;;;;5088770;28;20457;-59
2022/08/27 02:51:14;;;;;;;4.40;1.10;;;19.80;99.90;;;;;;5088255;28;20463;-59
2022/08/27 02:53:40;;;;;;;3.70;0.80;;;19.80;99.90;;;;;;5087624;28;20390;-59
2022/08/27 02:56:06;;;;;;;4.47;1.67;;;19.70;99.90;;;;;;5088553;28;20464;-59
2022/08/27 02:58:32;;;;;;;3.72;0.70;;;19.70;99.90;;;;;;5087707;28;20866;-59
2022/08/27 03:01:00;;;;;;;4.38;1.38;;;19.60;99.90;;;;;;5088124;28;20402;-59
2022/08/27 03:03:28;;;;;;;4.13;1.48;;;19.60;99.90;;;;;;5087529;28;20382;-58
2022/08/27 03:05:54;;;;;;;8.90;2.13;;;19.60;99.90;;;;;;5088012;28;20394;-59
2022/08/27 03:08:20;;;;;;;5.05;1.88;;;19.50;99.90;;;;;;5087533;28;20390;-57
2022/08/27 03:10:46;;;;;;;7.10;3.33;;;19.50;99.90;;;;;;5087705;28;20410;-58
2022/08/27 03:13:11;;;;;;;4.87;1.93;;;19.50;99.90;;;;;;5088185;28;20871;-58
2022/08/27 03:15:37;;;;;;;14.00;7.53;;;19.60;99.90;;;;;;5087245;28;20461;-59
2022/08/27 03:18:18;;;;;;;22.67;11.02;;;19.50;99.90;;;;;;5087799;28;20536;-59
2022/08/27 03:20:48;;;;;;;23.55;11.00;;;19.50;99.90;;;;;;5067389;28;20412;-59
2022/08/27 03:23:15;;;;;;;28.50;13.13;;;19.50;99.90;;;;;;5077825;28;20396;-59
2022/08/27 03:25:45;;;;;;;34.40;16.33;;;19.50;99.90;;;;;;5087335;28;20389;-58
2022/08/27 03:28:13;;;;;;;33.50;17.13;;;19.50;99.90;;;;;;5087717;28;20948;-60
2022/08/27 03:30:40;;;;;;;41.72;20.48;;;19.40;99.90;;;;;;5086686;28;21220;-58
2022/08/27 03:33:06;;;;;;;36.50;20.50;;;19.40;99.90;;;;;;5087953;28;20412;-56
2022/08/27 03:35:32;;;;;;;44.13;22.02;;;19.40;99.90;;;;;;5087593;28;20378;-58
2022/08/27 03:37:58;;;;;;;45.90;23.13;;;19.40;99.90;;;;;;5088089;28;20820;-58
2022/08/27 03:40:23;;;;;;;48.80;24.73;;;19.40;99.90;;;;;;5090191;28;20786;-56
2022/08/27 03:42:49;;;;;;;46.55;25.63;;;19.50;99.90;;;;;;5092117;28;20386;-56
2022/08/27 03:45:15;;;;;;;44.83;23.88;;;19.50;99.90;;;;;;5071470;28;20375;-56
2022/08/27 03:47:41;;;;;;;52.67;24.90;;;19.50;99.90;;;;;;5079403;28;20389;-56
2022/08/27 03:50:08;;;;;;;49.95;24.70;;;19.50;99.90;;;;;;5091995;28;20409;-59
2022/08/27 03:52:34;;;;;;;50.22;25.05;;;19.60;99.90;;;;;;5090485;28;20466;-56
2022/08/27 03:55:01;;;;;;;52.10;25.83;;;19.60;99.90;;;;;;5073351;28;20480;-57
2022/08/27 03:57:26;;;;;;;52.92;26.23;;;19.70;99.90;;;;;;5090694;28;20723;-56
2022/08/27 03:59:52;;;;;;;55.07;27.30;;;19.80;99.90;;;;;;5071179;28;20474;-57
2022/08/27 04:02:18;;;;;;;53.10;26.45;;;19.50;99.90;;;;;;5084534;28;20727;-58
2022/08/27 04:04:43;;;;;;;51.47;27.50;;;19.50;99.90;;;;;;5090590;28;20873;-58
2022/08/27 04:07:09;;;;;;;52.30;28.07;;;19.50;99.90;;;;;;5091477;28;20374;-58
2022/08/27 04:09:35;;;;;;;57.80;28.83;;;19.60;99.90;;;;;;5090503;28;20379;-58
2022/08/27 04:12:01;;;;;;;55.67;27.95;;;19.70;99.90;;;;;;5090997;28;20390;-58
2022/08/27 04:14:26;;;;;;;54.83;29.30;;;19.60;99.90;;;;;;5072189;28;20386;-58
2022/08/27 04:16:53;;;;;;;57.17;30.23;;;19.60;99.90;;;;;;5091114;28;20450;-58
2022/08/27 04:19:19;;;;;;;58.15;29.35;;;19.60;99.90;;;;;;5090762;28;20473;-57
2022/08/27 04:21:44;;;;;;;57.55;29.88;;;19.60;99.90;;;;;;5090593;28;20398;-58
2022/08/27 04:24:10;;;;;;;57.85;29.38;;;19.60;99.90;;;;;;5090907;28;20822;-58
2022/08/27 04:26:39;;;;;;;54.27;28.50;;;19.70;99.90;;;;;;5089622;28;20832;-58
2022/08/27 04:29:05;;;;;;;57.40;28.77;;;19.60;99.90;;;;;;5090592;28;20697;-58
2022/08/27 04:31:30;;;;;;;52.53;30.25;;;19.60;99.90;;;;;;5090094;28;20413;-58
2022/08/27 04:33:56;;;;;;;56.45;29.75;;;19.60;99.90;;;;;;5090862;28;20485;-58
2022/08/27 04:36:22;;;;;;;49.65;27.38;;;19.70;99.90;;;;;;5090242;28;20431;-57
2022/08/27 04:38:48;;;;;;;54.13;28.43;;;19.60;99.90;;;;;;5090428;28;20393;-60
2022/08/27 04:41:21;;;;;;;49.05;28.15;;;19.70;99.90;;;;;;5089881;28;20487;-59
2022/08/27 04:43:56;;;;;;;54.73;29.73;;;19.80;99.90;;;;;;5090105;28;20378;-58
2022/08/27 04:46:24;;;;;;;53.78;28.77;;;19.70;99.90;;;;;;5089813;28;20503;-57
2022/08/27 04:48:50;;;;;;;50.65;28.60;;;19.70;99.90;;;;;;5090434;28;20440;-58
2022/08/27 04:51:17;;;;;;;52.25;28.80;;;19.80;99.90;;;;;;5089259;28;20712;-58
2022/08/27 04:53:42;;;;;;;53.85;29.02;;;19.90;99.90;;;;;;5089654;28;20574;-59
2022/08/27 04:56:13;;;;;;;46.47;27.30;;;19.90;99.90;;;;;;5071974;28;20937;-59
2022/08/27 04:58:38;;;;;;;52.17;29.55;;;19.90;99.90;;;;;;5071079;28;20824;-61
2022/08/27 05:01:06;;;;;;;46.50;27.35;;;19.90;99.90;;;;;;5089827;28;20414;-59
2022/08/27 05:03:32;;;;;;;54.47;29.92;;;19.80;99.90;;;;;;5089341;28;20382;-58
2022/08/27 05:06:00;;;;;;;52.17;28.90;;;19.80;99.90;;;;;;5089869;28;20386;-59
2022/08/27 05:08:26;;;;;;;49.00;28.30;;;19.80;99.90;;;;;;5088868;28;20398;-59
2022/08/27 05:10:52;;;;;;;52.25;30.25;;;19.90;99.90;;;;;;5089742;28;20785;-58
2022/08/27 05:13:19;;;;;;;51.20;29.70;;;19.90;99.90;;;;;;5089563;28;20463;-58
2022/08/27 05:15:46;;;;;;;56.38;31.23;;;19.90;99.90;;;;;;5089491;28;20469;-59
2022/08/27 05:18:12;;;;;;;53.53;29.80;;;19.90;99.90;;;;;;5089848;28;20539;-60
2022/08/27 05:20:47;;;;;;;55.38;30.65;;;19.90;99.90;;;;;;5089152;28;20405;-60
2022/08/27 05:23:14;;;;;;;60.97;32.33;;;19.80;99.90;;;;;;5089965;28;20382;-60
2022/08/27 05:25:42;;;;;;;52.60;30.52;;;19.80;99.90;;;;;;5088974;28;20444;-59
2022/08/27 05:28:09;;;;;;;53.45;30.05;;;19.80;99.90;;;;;;5089769;28;20820;-60
2022/08/27 05:30:42;;;;;;;57.90;31.60;;;19.80;99.90;;;;;;5088576;28;20409;-60
2022/08/27 05:33:09;;;;;;;62.90;33.23;;;19.80;99.90;;;;;;5090017;28;20382;-60
2022/08/27 05:35:41;;;;;;;61.38;34.88;;;20.00;99.90;;;;;;5088313;28;20389;-61
2022/08/27 05:38:07;;;;;;;66.85;35.88;;;19.80;99.90;;;;;;5086729;28;20499;-60
2022/08/27 05:40:33;;;;;;;67.07;36.05;;;19.90;99.90;;;;;;5089031;28;20432;-60
2022/08/27 05:42:58;;;;;;;64.20;35.83;;;19.90;99.90;;;;;;5089395;28;20390;-60
2022/08/27 05:45:24;;;;;;;65.37;36.30;;;19.90;99.90;;;;;;5089027;28;20418;-57
2022/08/27 05:47:49;;;;;;;65.70;36.92;;;19.90;99.90;;;;;;5089493;28;20386;-60
2022/08/27 05:50:16;;;;;;;59.58;35.47;;;20.00;99.90;;;;;;5089198;28;20760;-60
2022/08/27 05:52:41;;;;;;;59.47;34.42;;;19.90;99.90;;;;;;5088749;28;20398;-60
2022/08/27 05:55:13;;;;;;;54.25;33.63;;;20.00;99.90;;;;;;5089467;28;20379;-60
2022/08/27 05:57:39;;;;;;;60.92;33.60;;;19.90;99.90;;;;;;5088637;28;20980;-60
2022/08/27 06:02:49;;;;;;;61.58;34.22;;;20.00;99.90;;;;;;5089300;28;20400;-60
2022/08/27 06:05:15;;;;;;;63.50;34.45;;;19.90;99.90;;;;;;5060074;28;20394;-61
2022/08/27 06:07:40;;;;;;;58.10;34.20;;;20.00;99.90;;;;;;5077484;28;20493;-59
2022/08/27 06:10:07;;;;;;;60.17;31.50;;;19.90;99.90;;;;;;5078912;28;20503;-59
2022/08/27 06:12:33;;;;;;;55.88;31.65;;;20.00;99.90;;;;;;5086939;28;20401;-59
2022/08/27 06:14:59;;;;;;;58.80;32.85;;;20.00;99.90;;;;;;5073496;28;20460;-60
2022/08/27 06:17:25;;;;;;;57.75;32.38;;;20.00;99.90;;;;;;5076584;28;20486;-60
2022/08/27 06:19:51;;;;;;;59.13;32.95;;;20.00;99.90;;;;;;5082954;28;20832;-59
2022/08/27 06:22:16;;;;;;;58.03;32.92;;;19.80;99.90;;;;;;5087298;28;20402;-58
2022/08/27 06:24:42;;;;;;;54.87;30.67;;;19.90;99.90;;;;;;5075586;28;20646;-59
2022/08/27 06:27:11;;;;;;;58.85;33.10;;;19.90;99.90;;;;;;5086116;28;20402;-61
2022/08/27 06:29:37;;;;;;;55.88;31.70;;;19.90;99.90;;;;;;5087630;28;20851;-61
2022/08/27 06:32:04;;;;;;;51.42;31.15;;;20.00;99.90;;;;;;5082582;28;20637;-61
2022/08/27 06:34:31;;;;;;;57.78;30.63;;;20.00;99.90;;;;;;5078944;28;20396;-61
2022/08/27 06:36:57;;;;;;;53.55;31.98;;;20.10;99.90;;;;;;5069442;28;20459;-61
2022/08/27 06:39:23;;;;;;;49.20;28.07;;;20.20;99.90;;;;;;5077670;28;20493;-58
2022/08/27 06:41:51;;;;;;;53.80;29.53;;;20.20;99.90;;;;;;5088170;28;20424;-61
2022/08/27 06:44:17;;;;;;;53.60;30.70;;;20.20;99.90;;;;;;5088007;28;20469;-60
2022/08/27 06:46:43;;;;;;;53.55;29.85;;;20.20;99.90;;;;;;5087515;28;20455;-62
2022/08/27 06:49:11;;;;;;;53.50;30.23;;;20.30;99.90;;;;;;5087979;28;20472;-58
2022/08/27 06:51:38;;;;;;;51.92;30.75;;;20.30;99.90;;;;;;5077244;28;20424;-59
2022/08/27 06:54:10;;;;;;;51.63;28.65;;;20.60;99.90;;;;;;5088055;28;20397;-58
2022/08/27 06:56:36;;;;;;;51.83;28.25;;;20.70;99.90;;;;;;5069274;28;20806;-60
2022/08/27 06:59:06;;;;;;;51.03;28.85;;;20.70;99.90;;;;;;5086560;28;20484;-61
2022/08/27 07:01:35;;;;;;;44.72;28.02;;;20.60;99.90;;;;;;5067017;28;20442;-59
2022/08/27 07:04:05;;;;;;;47.10;27.17;;;20.60;99.90;;;;;;5080564;28;20491;-59
2022/08/27 07:06:32;;;;;;;47.28;28.90;;;20.70;99.90;;;;;;5066483;28;20885;-59
2022/08/27 07:08:58;;;;;;;46.23;28.17;;;20.70;99.90;;;;;;5081415;28;20499;-59
2022/08/27 07:11:25;;;;;;;50.13;27.93;;;20.70;99.90;;;;;;5087283;28;20433;-57
2022/08/27 07:13:51;;;;;;;51.20;28.40;;;20.70;99.90;;;;;;5088225;28;20458;-60
2022/08/27 07:16:20;;;;;;;50.20;29.42;;;20.80;99.90;;;;;;5069052;28;20426;-60
2022/08/27 07:18:47;;;;;;;45.97;26.45;;;20.90;99.90;;;;;;5082553;28;20394;-59
2022/08/27 07:21:13;;;;;;;47.73;27.53;;;20.90;99.90;;;;;;5086206;28;20418;-61
2022/08/27 07:23:39;;;;;;;43.15;25.83;;;21.00;99.90;;;;;;5076384;28;20867;-60
2022/08/27 07:26:09;;;;;;;44.17;27.13;;;21.10;99.90;;;;;;5070187;28;20788;-60
2022/08/27 07:28:37;;;;;;;48.70;25.50;;;21.10;99.90;;;;;;5090573;28;20481;-59
2022/08/27 07:31:10;;;;;;;46.83;27.25;;;21.10;99.90;;;;;;5091001;28;20413;-61
2022/08/27 07:33:39;;;;;;;40.35;24.90;;;21.20;99.90;;;;;;5091109;28;20396;-59
2022/08/27 07:36:06;;;;;;;44.10;26.77;;;21.20;99.90;;;;;;5091265;28;20724;-60
2022/08/27 07:38:33;;;;;;;40.42;25.48;;;21.40;99.90;;;;;;5091279;28;20374;-59
2022/08/27 07:40:59;;;;;;;47.15;26.27;;;21.50;99.90;;;;;;5091296;28;20460;-60
2022/08/27 07:46:09;;;;;;;41.50;26.50;;;21.30;99.90;;;;;;5081050;28;20382;-59
2022/08/27 07:48:35;;;;;;;46.97;27.52;;;21.20;99.90;;;;;;5090571;28;20386;-59
2022/08/27 07:51:04;;;;;;;44.38;27.60;;;21.20;99.90;;;;;;5081521;28;20454;-59
2022/08/27 07:53:33;;;;;;;51.78;27.60;;;21.20;99.90;;;;;;5070292;28;20911;-60
2022/08/27 07:56:04;;;;;;;51.53;27.00;;;21.30;99.90;;;;;;5063957;28;20376;-60
2022/08/27 07:58:30;;;;;;;47.20;27.52;;;21.30;99.90;;;;;;5090631;28;20776;-60
2022/08/27 08:00:56;;;;;;;45.05;26.00;;;21.30;99.90;;;;;;5079482;28;20486;-60
2022/08/27 08:03:22;;;;;;;44.28;26.30;;;21.40;99.90;;;;;;5071025;28;20384;-62
2022/08/27 08:05:49;;;;;;;41.65;24.65;;;21.60;99.90;;;;;;5077928;28;20414;-60
2022/08/27 08:08:15;;;;;;;44.22;26.05;;;21.70;99.90;;;;;;5070764;28;20719;-60
2022/08/27 08:10:42;;;;;;;44.77;26.30;;;21.80;99.90;;;;;;5063925;28;20417;-60
2022/08/27 08:13:08;;;;;;;44.33;25.80;;;21.80;99.90;;;;;;5090757;28;20390;-60
2022/08/27 08:15:34;;;;;;;43.30;25.30;;;21.70;99.90;;;;;;5071416;28;20443;-59
2022/08/27 08:18:00;;;;;;;42.33;24.90;;;22.20;99.90;;;;;;5090933;28;20410;-60
2022/08/27 08:20:26;;;;;;;37.58;24.05;;;21.80;99.90;;;;;;5089481;28;20451;-57
2022/08/27 08:22:52;;;;;;;40.63;24.27;;;21.80;99.90;;;;;;5090780;28;20420;-60
2022/08/27 08:25:17;;;;;;;36.00;22.20;;;21.90;99.90;;;;;;5077740;28;20396;-61
2022/08/27 08:27:43;;;;;;;39.25;24.58;;;21.90;99.90;;;;;;5050803;28;20415;-61
2022/08/27 08:30:10;;;;;;;40.42;25.38;;;21.60;99.90;;;;;;5081622;28;20419;-60
2022/08/27 08:32:36;;;;;;;44.38;26.30;;;21.50;99.90;;;;;;5078307;28;20394;-61
2022/08/27 08:35:03;;;;;;;39.50;24.73;;;21.40;99.90;;;;;;5090094;28;20477;-60
2022/08/27 08:37:28;;;;;;;41.55;24.42;;;21.60;99.90;;;;;;5089766;28;20410;-61
2022/08/27 08:39:54;;;;;;;40.93;25.17;;;21.00;99.90;;;;;;5090726;28;20867;-62
2022/08/27 08:42:28;;;;;;;40.57;24.90;;;21.90;99.90;;;;;;5090335;28;20378;-64
2022/08/27 08:44:56;;;;;;;42.00;25.30;;;22.00;99.90;;;;;;5090438;28;20762;-63
2022/08/27 08:47:42;;;;;;;43.35;25.73;;;22.00;99.90;;;;;;5090563;28;20373;-62
2022/08/27 08:50:18;;;;;;;41.83;23.70;;;22.00;99.90;;;;;;5090689;28;20531;-63
2022/08/27 08:53:04;;;;;;;40.60;22.90;;;21.90;99.90;;;;;;5076564;28;20378;-59
2022/08/27 08:55:51;;;;;;;40.47;24.73;;;21.70;99.90;;;;;;5087611;28;20408;-60
2022/08/27 08:58:38;;;;;;;43.65;24.77;;;21.50;99.90;;;;;;5083409;28;20403;-61
2022/08/27 09:01:06;;;;;;;38.30;23.00;;;21.30;99.90;;;;;;5083018;28;20481;-60
2022/08/27 09:03:39;;;;;;;42.43;23.70;;;21.30;99.90;;;;;;5088341;28;20390;-60
2022/08/27 09:06:09;;;;;;;38.43;22.70;;;21.40;99.90;;;;;;5089953;28;20740;-60
2022/08/27 09:08:39;;;;;;;36.10;21.08;;;21.50;99.90;;;;;;5080021;28;20485;-58
2022/08/27 09:11:26;;;;;;;33.90;22.10;;;21.30;99.90;;;;;;5086788;28;20421;-62
2022/08/27 09:14:27;;;;;;;38.92;23.63;;;21.40;99.90;;;;;;5087058;28;20417;-59
2022/08/27 09:16:52;;;;;;;35.42;23.15;;;21.60;99.90;;;;;;5072089;28;20481;-59
2022/08/27 09:19:20;;;;;;;38.53;23.13;;;21.60;99.90;;;;;;5070787;28;20472;-59
2022/08/27 09:22:09;;;;;;;38.25;22.23;;;21.60;99.90;;;;;;5088702;28;20797;-59
2022/08/27 09:25:12;;;;;;;40.05;23.70;;;21.60;99.90;;;;;;5087975;28;20871;-59
2022/08/27 09:27:40;;;;;;;32.60;19.67;;;21.50;99.90;;;;;;5088198;28;20513;-60
2022/08/27 09:30:15;;;;;;;32.25;19.33;;;21.60;99.90;;;;;;5089536;28;20418;-59
2022/08/27 09:32:41;;;;;;;32.67;19.73;;;21.50;99.90;;;;;;5088347;28;20455;-59
2022/08/27 09:35:10;;;;;;;30.77;19.33;;;21.50;99.90;;;;;;5089521;28;20761;-59
2022/08/27 09:37:43;;;;;;;32.70;18.83;;;21.40;99.90;;;;;;5069029;28;20753;-59
2022/08/27 09:40:32;;;;;;;30.98;19.23;;;21.40;99.90;;;;;;5069079;28;20394;-60
2022/08/27 09:43:19;;;;;;;29.92;18.20;;;21.40;99.90;;;;;;5071939;28;20412;-59
2022/08/27 09:46:13;;;;;;;31.50;18.52;;;21.50;99.90;;;;;;5088715;28;20969;-58
2022/08/27 09:48:39;;;;;;;27.05;17.83;;;21.40;99.90;;;;;;5084873;28;20428;-59
2022/08/27 09:51:12;;;;;;;29.53;19.53;;;21.40;99.90;;;;;;5086290;28;20464;-58
2022/08/27 09:53:59;;;;;;;32.10;20.35;;;21.40;99.90;;;;;;5061717;28;20444;-59
2022/08/27 09:56:27;;;;;;;29.90;18.50;;;21.40;99.90;;;;;;5086763;28;20411;-57
2022/08/27 09:59:00;;;;;;;29.10;18.80;;;21.50;99.90;;;;;;5088759;28;20390;-58
2022/08/27 10:01:29;;;;;;;29.65;19.10;;;21.60;99.90;;;;;;5088301;28;20390;-57
2022/08/27 10:04:13;;;;;;;32.20;20.10;;;21.60;99.90;;;;;;5088658;28;20403;-59
2022/08/27 10:06:50;;;;;;;29.88;19.38;;;21.30;99.90;;;;;;5068575;28;20397;-59
2022/08/27 10:09:31;;;;;;;31.05;18.50;;;21.50;99.90;;;;;;5086462;28;20506;-59
2022/08/27 10:12:20;;;;;;;30.00;19.20;;;21.50;99.90;;;;;;5087919;28;20414;-59
2022/08/27 10:14:51;;;;;;;31.20;20.38;;;21.60;99.90;;;;;;5082538;28;20440;-59
2022/08/27 10:17:50;;;;;;;32.03;19.88;;;21.70;99.90;;;;;;5087353;28;20386;-59
2022/08/27 10:20:31;;;;;;;30.65;20.33;;;21.80;99.90;;;;;;5088001;28;20734;-59
2022/08/27 10:23:17;;;;;;;32.97;20.63;;;21.90;99.90;;;;;;5084132;28;20405;-59
2022/08/27 10:25:55;;;;;;;29.30;19.50;;;22.20;99.90;;;;;;5084455;28;20405;-59
2022/08/27 10:28:27;;;;;;;30.77;20.00;;;22.30;99.90;;;;;;5077092;28;20464;-59
2022/08/27 10:31:30;;;;;;;31.60;20.00;;;22.50;99.90;;;;;;5078820;28;20899;-57
2022/08/27 10:34:31;;;;;;;28.83;19.50;;;22.40;99.90;;;;;;5086908;28;20413;-60
2022/08/27 10:37:18;;;;;;;28.15;19.50;;;22.50;99.90;;;;;;5087187;28;20382;-59
2022/08/27 10:39:52;;;;;;;33.08;20.50;;;22.40;99.90;;;;;;5087166;28;20379;-58
2022/08/27 10:42:27;;;;;;;29.47;19.47;;;22.40;99.90;;;;;;5081204;28;20394;-58
2022/08/27 10:45:11;;;;;;;32.90;21.25;;;22.30;99.90;;;;;;5082653;28;20460;-59
2022/08/27 10:48:05;;;;;;;31.20;20.02;;;22.40;99.90;;;;;;5082676;28;20401;-59
2022/08/27 10:50:35;;;;;;;33.88;21.27;;;22.40;99.90;;;;;;5086211;28;20405;-59
2022/08/27 10:53:10;;;;;;;30.97;20.63;;;22.60;99.90;;;;;;5088398;28;20883;-60
2022/08/27 10:55:50;;;;;;;31.67;21.07;;;22.70;99.90;;;;;;5087167;28;20397;-58
2022/08/27 10:59:11;;;;;;;33.28;20.98;;;23.20;99.90;;;;;;5087377;28;20425;-58
2022/08/27 11:01:42;;;;;;;31.55;20.20;;;23.60;99.90;;;;;;4999090;28;20451;-58
2022/08/27 11:04:19;;;;;;;33.10;21.90;;;23.60;1.00;;;;;;5066298;28;20394;-58
2022/08/27 11:07:05;;;;;;;34.78;21.33;;;23.80;1.00;;;;;;5068841;28;20440;-58
2022/08/27 11:09:51;;;;;;;35.17;20.70;;;23.50;1.00;;;;;;5087043;28;20720;-58
2022/08/27 11:12:24;;;;;;;33.90;21.50;;;23.20;1.00;;;;;;5087580;28;20393;-58
2022/08/27 11:15:01;;;;;;;35.92;22.63;;;23.00;1.00;;;;;;5087050;28;20390;-58
2022/08/27 11:17:35;;;;;;;35.35;22.35;;;23.00;57.10;;;;;;5087832;28;20386;-58
2022/08/27 11:20:06;;;;;;;33.50;20.50;;;22.80;1.00;;;;;;5065228;28;20410;-58
2022/08/27 11:22:40;;;;;;;33.63;21.88;;;22.80;31.90;;;;;;5061743;28;20823;-58
2022/08/27 11:25:21;;;;;;;35.13;22.63;;;22.80;37.30;;;;;;5082308;28;20394;-58
2022/08/27 11:27:50;;;;;;;35.72;22.33;;;22.90;99.90;;;;;;5083519;28;20658;-59
2022/08/27 11:30:25;;;;;;;32.78;21.50;;;23.10;99.90;;;;;;5083902;28;20844;-58
2022/08/27 11:33:25;;;;;;;33.42;22.17;;;23.30;48.70;;;;;;5080296;28;20410;-58
2022/08/27 11:36:17;;;;;;;34.92;22.27;;;23.60;27.70;;;;;;5083581;28;20386;-58
2022/08/27 11:38:52;;;;;;;37.78;22.67;;;23.60;1.00;;;;;;5083903;28;20407;-58
2022/08/27 11:41:40;;;;;;;35.63;22.15;;;23.70;1.00;;;;;;5079674;28;20411;-58
2022/08/27 11:44:06;;;;;;;30.83;21.73;;;23.60;1.00;;;;;;5084551;28;20405;-59
2022/08/27 11:46:43;;;;;;;32.90;21.10;;;23.60;1.00;;;;;;5086027;28;20864;-59
2022/08/27 11:49:09;;;;;;;35.28;20.85;;;23.80;1.00;;;;;;5079348;28;20407;-58
2022/08/27 11:51:38;;;;;;;33.43;20.87;;;23.70;1.00;;;;;;5085625;28;20420;-59
2022/08/27 11:54:25;;;;;;;35.53;22.27;;;23.60;1.00;;;;;;5068995;28;20382;-59
2022/08/27 11:56:51;;;;;;;39.27;23.40;;;23.30;1.00;;;;;;5062526;28;20390;-59
2022/08/27 11:59:28;;;;;;;38.00;25.10;;;23.10;51.20;;;;;;5072012;28;20407;-59
2022/08/27 12:01:56;;;;;;;38.75;24.20;;;23.00;99.90;;;;;;5090337;28;20394;-59
2022/08/27 12:04:25;;;;;;;38.97;24.30;;;22.80;99.90;;;;;;5090841;28;20427;-59
2022/08/27 12:07:00;;;;;;;39.10;24.60;;;22.70;99.90;;;;;;5090296;28;20396;-58
2022/08/27 12:09:26;;;;;;;40.42;24.50;;;22.60;99.90;;;;;;5090961;28;20473;-59
2022/08/27 12:12:23;;;;;;;40.70;24.03;;;22.60;99.90;;;;;;5090431;28;20926;-59
2022/08/27 12:14:56;;;;;;;38.63;23.90;;;22.70;99.90;;;;;;5080659;28;20393;-59
2022/08/27 12:17:45;;;;;;;38.22;24.38;;;22.90;99.90;;;;;;5072319;28;20473;-59
2022/08/27 12:20:29;;;;;;;38.13;24.98;;;22.80;99.90;;;;;;5087157;28;20401;-59
2022/08/27 12:23:40;;;;;;;36.05;24.58;;;22.90;99.90;;;;;;5072288;28;20405;-59
2022/08/27 12:26:33;;;;;;;36.40;23.60;;;22.70;99.90;;;;;;5090306;28;20394;-59
2022/08/27 12:29:23;;;;;;;37.08;24.25;;;22.80;99.90;;;;;;5090028;28;20402;-59
2022/08/27 12:31:53;;;;;;;40.77;24.30;;;22.90;99.90;;;;;;5089899;28;20522;-59
2022/08/27 12:34:23;;;;;;;37.08;24.02;;;23.00;99.90;;;;;;5090327;28;20827;-59
2022/08/27 12:36:51;;;;;;;38.72;24.27;;;23.10;99.90;;;;;;5089969;28;20640;-59
2022/08/27 12:39:21;;;;;;;37.13;24.00;;;23.20;99.90;;;;;;5071115;28;20401;-59
2022/08/27 12:41:48;;;;;;;37.15;24.50;;;23.20;99.90;;;;;;5089614;28;20388;-59
2022/08/27 12:44:28;;;;;;;37.65;24.35;;;23.30;99.90;;;;;;5090400;28;20374;-59
2022/08/27 12:47:15;;;;;;;40.15;23.38;;;23.30;99.90;;;;;;5089913;28;20523;-58
2022/08/27 12:49:41;;;;;;;40.03;23.75;;;23.30;99.90;;;;;;5085568;28;20863;-58
2022/08/27 12:52:28;;;;;;;42.03;26.52;;;23.20;99.90;;;;;;5071662;28;20426;-58
2022/08/27 12:55:21;;;;;;;40.72;24.73;;;23.10;99.90;;;;;;5089482;28;20390;-58
2022/08/27 12:58:14;;;;;;;41.10;25.52;;;23.00;99.90;;;;;;5089309;28;20494;-58